Terminal Aerodrome Forecast
Issued by NWS

Home | Current Version | Previous Version | Text Only | Print | Product List | Glossary On
Versions: 1 2 3 4 5 6 7 8 9 10 11 12 13 14
000
FTAK31 PAJN 272321
TAFASI
TAF
PASI 272321Z 2800/2824 30009KT P6SM VCSH BKN080
     FM280500 VRB04KT P6SM SCT070
     FM281100 10004KT P6SM BKN060
     FM281900 22006KT P6SM -SHRA BKN060=

USA.gov is the U.S. government's official web portal to all federal, state and local government web resources and services.